sensor_id;sensor_type;location;lat;lon;timestamp;P1;durP1;ratioP1;P2;durP2;ratioP2
35558;SDS011;21661;50.794;-1.066;2023-05-09T00:00:35;4.68;;;2.03;;
35558;SDS011;21661;50.794;-1.066;2023-05-09T00:03:02;4.45;;;2.10;;
35558;SDS011;21661;50.794;-1.066;2023-05-09T00:05:29;7.30;;;2.28;;
35558;SDS011;21661;50.794;-1.066;2023-05-09T00:07:55;6.25;;;2.00;;
35558;SDS011;21661;50.794;-1.066;2023-05-09T00:10:21;5.50;;;2.42;;
35558;SDS011;21661;50.794;-1.066;2023-05-09T00:12:47;5.90;;;2.58;;
35558;SDS011;21661;50.794;-1.066;2023-05-09T00:15:13;8.00;;;2.90;;
35558;SDS011;21661;50.794;-1.066;2023-05-09T00:17:39;5.07;;;2.50;;
35558;SDS011;21661;50.794;-1.066;2023-05-09T00:20:08;7.93;;;2.90;;
35558;SDS011;21661;50.794;-1.066;2023-05-09T00:22:36;4.97;;;2.63;;
35558;SDS011;21661;50.794;-1.066;2023-05-09T00:25:04;4.60;;;2.90;;
35558;SDS011;21661;50.794;-1.066;2023-05-09T00:27:30;6.05;;;3.17;;
35558;SDS011;21661;50.794;-1.066;2023-05-09T00:29:56;6.10;;;3.50;;
35558;SDS011;21661;50.794;-1.066;2023-05-09T00:32:22;7.10;;;3.83;;
35558;SDS011;21661;50.794;-1.066;2023-05-09T00:34:49;9.05;;;4.45;;
35558;SDS011;21661;50.794;-1.066;2023-05-09T00:37:14;9.35;;;5.10;;
35558;SDS011;21661;50.794;-1.066;2023-05-09T00:39:42;10.48;;;5.63;;
35558;SDS011;21661;50.794;-1.066;2023-05-09T00:42:07;11.68;;;5.65;;
35558;SDS011;21661;50.794;-1.066;2023-05-09T00:44:33;9.68;;;6.13;;
35558;SDS011;21661;50.794;-1.066;2023-05-09T00:46:58;12.98;;;5.90;;
35558;SDS011;21661;50.794;-1.066;2023-05-09T00:49:24;12.00;;;6.55;;
35558;SDS011;21661;50.794;-1.066;2023-05-09T00:51:50;8.88;;;5.88;;
35558;SDS011;21661;50.794;-1.066;2023-05-09T00:54:16;12.02;;;7.28;;
35558;SDS011;21661;50.794;-1.066;2023-05-09T00:56:42;12.18;;;7.20;;
35558;SDS011;21661;50.794;-1.066;2023-05-09T00:59:08;10.10;;;6.00;;
35558;SDS011;21661;50.794;-1.066;2023-05-09T01:01:34;9.55;;;5.93;;
35558;SDS011;21661;50.794;-1.066;2023-05-09T01:04:00;11.80;;;6.43;;
35558;SDS011;21661;50.794;-1.066;2023-05-09T01:06:31;9.45;;;5.85;;
35558;SDS011;21661;50.794;-1.066;2023-05-09T01:09:31;7.50;;;5.03;;
35558;SDS011;21661;50.794;-1.066;2023-05-09T01:12:12;10.13;;;5.32;;
35558;SDS011;21661;50.794;-1.066;2023-05-09T01:15:01;10.90;;;6.45;;
35558;SDS011;21661;50.794;-1.066;2023-05-09T01:17:35;12.15;;;7.50;;
35558;SDS011;21661;50.794;-1.066;2023-05-09T01:28:14;20.98;;;8.00;;
35558;SDS011;21661;50.794;-1.066;2023-05-09T01:30:50;24.75;;;7.90;;
35558;SDS011;21661;50.794;-1.066;2023-05-09T01:33:17;23.55;;;7.47;;
35558;SDS011;21661;50.794;-1.066;2023-05-09T01:35:51;24.80;;;7.28;;
35558;SDS011;21661;50.794;-1.066;2023-05-09T01:38:22;26.23;;;8.93;;
35558;SDS011;21661;50.794;-1.066;2023-05-09T01:40:50;31.70;;;8.75;;
35558;SDS011;21661;50.794;-1.066;2023-05-09T01:43:18;22.38;;;8.13;;
35558;SDS011;21661;50.794;-1.066;2023-05-09T01:45:47;24.02;;;8.65;;
35558;SDS011;21661;50.794;-1.066;2023-05-09T01:48:13;23.33;;;8.30;;
35558;SDS011;21661;50.794;-1.066;2023-05-09T01:50:39;32.08;;;8.77;;
35558;SDS011;21661;50.794;-1.066;2023-05-09T01:53:07;28.05;;;8.95;;
35558;SDS011;21661;50.794;-1.066;2023-05-09T01:55:35;26.23;;;9.50;;
35558;SDS011;21661;50.794;-1.066;2023-05-09T01:58:03;33.05;;;9.70;;
35558;SDS011;21661;50.794;-1.066;2023-05-09T02:00:31;31.27;;;10.90;;
35558;SDS011;21661;50.794;-1.066;2023-05-09T02:02:57;23.98;;;9.93;;
35558;SDS011;21661;50.794;-1.066;2023-05-09T02:05:25;25.50;;;10.32;;
35558;SDS011;21661;50.794;-1.066;2023-05-09T02:07:53;20.88;;;9.52;;
35558;SDS011;21661;50.794;-1.066;2023-05-09T02:10:23;22.83;;;10.45;;
35558;SDS011;21661;50.794;-1.066;2023-05-09T02:12:52;22.45;;;10.23;;
35558;SDS011;21661;50.794;-1.066;2023-05-09T02:15:18;23.23;;;10.43;;
35558;SDS011;21661;50.794;-1.066;2023-05-09T02:17:43;22.92;;;9.23;;
35558;SDS011;21661;50.794;-1.066;2023-05-09T02:20:10;18.48;;;8.43;;
35558;SDS011;21661;50.794;-1.066;2023-05-09T02:22:36;20.05;;;9.65;;
35558;SDS011;21661;50.794;-1.066;2023-05-09T02:25:03;19.35;;;9.57;;
35558;SDS011;21661;50.794;-1.066;2023-05-09T02:27:31;20.08;;;9.43;;
35558;SDS011;21661;50.794;-1.066;2023-05-09T02:29:58;19.38;;;8.80;;
35558;SDS011;21661;50.794;-1.066;2023-05-09T02:32:30;17.13;;;8.45;;
35558;SDS011;21661;50.794;-1.066;2023-05-09T02:34:57;19.27;;;8.15;;
35558;SDS011;21661;50.794;-1.066;2023-05-09T02:37:24;15.20;;;8.63;;
35558;SDS011;21661;50.794;-1.066;2023-05-09T02:39:50;12.60;;;7.05;;
35558;SDS011;21661;50.794;-1.066;2023-05-09T02:42:22;14.30;;;7.95;;
35558;SDS011;21661;50.794;-1.066;2023-05-09T02:44:49;15.90;;;8.52;;
35558;SDS011;21661;50.794;-1.066;2023-05-09T02:47:15;17.25;;;8.25;;
35558;SDS011;21661;50.794;-1.066;2023-05-09T02:49:41;19.55;;;8.18;;
35558;SDS011;21661;50.794;-1.066;2023-05-09T02:52:07;16.85;;;8.40;;
35558;SDS011;21661;50.794;-1.066;2023-05-09T02:54:32;17.35;;;8.43;;
35558;SDS011;21661;50.794;-1.066;2023-05-09T02:56:58;19.48;;;9.15;;
35558;SDS011;21661;50.794;-1.066;2023-05-09T02:59:24;19.00;;;8.30;;
35558;SDS011;21661;50.794;-1.066;2023-05-09T03:01:50;14.85;;;7.72;;
35558;SDS011;21661;50.794;-1.066;2023-05-09T03:04:16;18.85;;;7.70;;
35558;SDS011;21661;50.794;-1.066;2023-05-09T03:06:42;18.00;;;7.97;;
35558;SDS011;21661;50.794;-1.066;2023-05-09T03:09:08;16.55;;;8.00;;
35558;SDS011;21661;50.794;-1.066;2023-05-09T03:11:34;20.95;;;8.75;;
35558;SDS011;21661;50.794;-1.066;2023-05-09T03:14:00;17.73;;;8.27;;
35558;SDS011;21661;50.794;-1.066;2023-05-09T03:16:29;18.02;;;8.68;;
35558;SDS011;21661;50.794;-1.066;2023-05-09T03:18:55;19.55;;;8.75;;
35558;SDS011;21661;50.794;-1.066;2023-05-09T03:21:21;20.23;;;8.70;;
35558;SDS011;21661;50.794;-1.066;2023-05-09T03:23:46;22.77;;;9.98;;
35558;SDS011;21661;50.794;-1.066;2023-05-09T03:26:12;20.70;;;9.55;;
35558;SDS011;21661;50.794;-1.066;2023-05-09T03:28:38;19.95;;;9.07;;
35558;SDS011;21661;50.794;-1.066;2023-05-09T03:31:04;19.02;;;8.32;;
35558;SDS011;21661;50.794;-1.066;2023-05-09T03:33:30;18.17;;;8.70;;
35558;SDS011;21661;50.794;-1.066;2023-05-09T03:35:55;18.90;;;7.97;;
35558;SDS011;21661;50.794;-1.066;2023-05-09T03:38:21;16.85;;;7.53;;
35558;SDS011;21661;50.794;-1.066;2023-05-09T03:40:48;18.63;;;7.95;;
35558;SDS011;21661;50.794;-1.066;2023-05-09T03:43:15;18.95;;;8.38;;
35558;SDS011;21661;50.794;-1.066;2023-05-09T03:45:41;16.48;;;8.10;;
35558;SDS011;21661;50.794;-1.066;2023-05-09T03:48:06;21.95;;;9.93;;
35558;SDS011;21661;50.794;-1.066;2023-05-09T03:50:33;18.88;;;8.40;;
35558;SDS011;21661;50.794;-1.066;2023-05-09T03:52:59;16.25;;;8.00;;
35558;SDS011;21661;50.794;-1.066;2023-05-09T03:55:25;18.73;;;7.90;;
35558;SDS011;21661;50.794;-1.066;2023-05-09T03:57:51;15.38;;;7.90;;
35558;SDS011;21661;50.794;-1.066;2023-05-09T04:00:17;17.77;;;8.10;;
35558;SDS011;21661;50.794;-1.066;2023-05-09T04:02:43;16.17;;;7.60;;
35558;SDS011;21661;50.794;-1.066;2023-05-09T04:05:09;17.42;;;6.90;;
35558;SDS011;21661;50.794;-1.066;2023-05-09T04:07:34;13.60;;;6.40;;
35558;SDS011;21661;50.794;-1.066;2023-05-09T04:10:01;15.27;;;7.05;;
35558;SDS011;21661;50.794;-1.066;2023-05-09T04:12:26;16.77;;;7.35;;
35558;SDS011;21661;50.794;-1.066;2023-05-09T04:14:52;16.23;;;7.05;;
35558;SDS011;21661;50.794;-1.066;2023-05-09T04:17:17;14.57;;;6.97;;
35558;SDS011;21661;50.794;-1.066;2023-05-09T04:19:43;12.50;;;6.78;;
35558;SDS011;21661;50.794;-1.066;2023-05-09T04:22:09;12.93;;;6.43;;
35558;SDS011;21661;50.794;-1.066;2023-05-09T04:24:35;15.18;;;6.88;;
35558;SDS011;21661;50.794;-1.066;2023-05-09T04:27:00;15.55;;;7.05;;
35558;SDS011;21661;50.794;-1.066;2023-05-09T04:29:26;13.55;;;6.07;;
35558;SDS011;21661;50.794;-1.066;2023-05-09T04:31:52;12.82;;;6.97;;
35558;SDS011;21661;50.794;-1.066;2023-05-09T04:34:18;14.30;;;6.93;;
35558;SDS011;21661;50.794;-1.066;2023-05-09T04:36:44;16.55;;;7.93;;
35558;SDS011;21661;50.794;-1.066;2023-05-09T04:39:10;15.52;;;7.22;;
35558;SDS011;21661;50.794;-1.066;2023-05-09T04:41:36;15.45;;;7.22;;
35558;SDS011;21661;50.794;-1.066;2023-05-09T04:44:02;15.07;;;8.05;;
35558;SDS011;21661;50.794;-1.066;2023-05-09T04:46:28;13.43;;;7.30;;
35558;SDS011;21661;50.794;-1.066;2023-05-09T04:48:53;14.10;;;7.57;;
35558;SDS011;21661;50.794;-1.066;2023-05-09T04:51:19;13.82;;;7.32;;
35558;SDS011;21661;50.794;-1.066;2023-05-09T04:53:45;16.27;;;7.70;;
35558;SDS011;21661;50.794;-1.066;2023-05-09T04:56:10;13.85;;;7.70;;
35558;SDS011;21661;50.794;-1.066;2023-05-09T04:58:36;16.10;;;7.75;;
35558;SDS011;21661;50.794;-1.066;2023-05-09T05:01:05;16.38;;;7.90;;
35558;SDS011;21661;50.794;-1.066;2023-05-09T05:03:30;15.35;;;8.57;;
35558;SDS011;21661;50.794;-1.066;2023-05-09T05:05:56;16.65;;;8.27;;
35558;SDS011;21661;50.794;-1.066;2023-05-09T05:08:22;15.02;;;8.07;;
35558;SDS011;21661;50.794;-1.066;2023-05-09T05:10:48;15.20;;;7.38;;
35558;SDS011;21661;50.794;-1.066;2023-05-09T05:13:14;16.52;;;8.15;;
35558;SDS011;21661;50.794;-1.066;2023-05-09T05:15:40;16.92;;;8.70;;
35558;SDS011;21661;50.794;-1.066;2023-05-09T05:18:06;18.23;;;9.68;;
35558;SDS011;21661;50.794;-1.066;2023-05-09T05:20:32;19.88;;;10.40;;
35558;SDS011;21661;50.794;-1.066;2023-05-09T05:22:58;16.70;;;9.52;;
35558;SDS011;21661;50.794;-1.066;2023-05-09T05:25:24;15.63;;;8.23;;
35558;SDS011;21661;50.794;-1.066;2023-05-09T05:27:49;15.82;;;8.98;;
35558;SDS011;21661;50.794;-1.066;2023-05-09T05:30:15;17.40;;;8.93;;
35558;SDS011;21661;50.794;-1.066;2023-05-09T05:32:41;15.95;;;9.00;;
35558;SDS011;21661;50.794;-1.066;2023-05-09T05:35:07;16.98;;;8.48;;
35558;SDS011;21661;50.794;-1.066;2023-05-09T05:37:36;17.10;;;8.57;;
35558;SDS011;21661;50.794;-1.066;2023-05-09T05:40:02;16.33;;;8.35;;
35558;SDS011;21661;50.794;-1.066;2023-05-09T05:42:29;16.75;;;8.57;;
35558;SDS011;21661;50.794;-1.066;2023-05-09T05:44:55;18.63;;;9.48;;
35558;SDS011;21661;50.794;-1.066;2023-05-09T05:47:20;19.55;;;8.63;;
35558;SDS011;21661;50.794;-1.066;2023-05-09T05:49:46;19.35;;;8.80;;
35558;SDS011;21661;50.794;-1.066;2023-05-09T05:52:11;18.35;;;8.75;;
35558;SDS011;21661;50.794;-1.066;2023-05-09T05:54:37;18.58;;;9.35;;
35558;SDS011;21661;50.794;-1.066;2023-05-09T05:57:02;18.95;;;8.98;;
35558;SDS011;21661;50.794;-1.066;2023-05-09T05:59:28;16.17;;;7.72;;
35558;SDS011;21661;50.794;-1.066;2023-05-09T06:01:54;20.23;;;9.13;;
35558;SDS011;21661;50.794;-1.066;2023-05-09T06:04:19;15.45;;;8.23;;
35558;SDS011;21661;50.794;-1.066;2023-05-09T06:06:45;16.85;;;8.70;;
35558;SDS011;21661;50.794;-1.066;2023-05-09T06:09:11;18.58;;;8.70;;
35558;SDS011;21661;50.794;-1.066;2023-05-09T06:11:36;18.88;;;9.20;;
35558;SDS011;21661;50.794;-1.066;2023-05-09T06:14:03;18.02;;;8.95;;
35558;SDS011;21661;50.794;-1.066;2023-05-09T06:16:28;17.88;;;8.90;;
35558;SDS011;21661;50.794;-1.066;2023-05-09T06:18:54;18.75;;;9.57;;
35558;SDS011;21661;50.794;-1.066;2023-05-09T06:21:20;16.75;;;9.02;;
35558;SDS011;21661;50.794;-1.066;2023-05-09T06:23:45;20.17;;;8.95;;
35558;SDS011;21661;50.794;-1.066;2023-05-09T06:26:11;15.27;;;7.85;;
35558;SDS011;21661;50.794;-1.066;2023-05-09T06:28:38;20.65;;;9.65;;
35558;SDS011;21661;50.794;-1.066;2023-05-09T06:31:04;16.42;;;8.98;;
35558;SDS011;21661;50.794;-1.066;2023-05-09T06:33:29;20.08;;;9.27;;
35558;SDS011;21661;50.794;-1.066;2023-05-09T06:35:55;17.30;;;9.02;;
35558;SDS011;21661;50.794;-1.066;2023-05-09T06:38:20;17.27;;;8.65;;
35558;SDS011;21661;50.794;-1.066;2023-05-09T06:40:46;18.52;;;9.35;;
35558;SDS011;21661;50.794;-1.066;2023-05-09T06:43:11;19.90;;;9.02;;
35558;SDS011;21661;50.794;-1.066;2023-05-09T06:45:37;15.75;;;9.07;;
35558;SDS011;21661;50.794;-1.066;2023-05-09T06:48:03;18.85;;;9.77;;
35558;SDS011;21661;50.794;-1.066;2023-05-09T06:50:29;15.25;;;9.30;;
35558;SDS011;21661;50.794;-1.066;2023-05-09T06:52:54;18.08;;;9.60;;
35558;SDS011;21661;50.794;-1.066;2023-05-09T06:55:20;19.30;;;8.98;;
35558;SDS011;21661;50.794;-1.066;2023-05-09T06:57:46;16.15;;;9.65;;
35558;SDS011;21661;50.794;-1.066;2023-05-09T07:00:12;15.77;;;9.27;;
35558;SDS011;21661;50.794;-1.066;2023-05-09T07:02:38;16.83;;;9.32;;
35558;SDS011;21661;50.794;-1.066;2023-05-09T07:05:06;18.65;;;9.38;;
35558;SDS011;21661;50.794;-1.066;2023-05-09T07:07:33;19.65;;;9.85;;
35558;SDS011;21661;50.794;-1.066;2023-05-09T07:09:58;20.35;;;9.73;;
35558;SDS011;21661;50.794;-1.066;2023-05-09T07:12:25;17.08;;;8.65;;
35558;SDS011;21661;50.794;-1.066;2023-05-09T07:14:50;20.42;;;10.15;;
35558;SDS011;21661;50.794;-1.066;2023-05-09T07:17:16;17.67;;;9.88;;
35558;SDS011;21661;50.794;-1.066;2023-05-09T07:19:42;22.33;;;9.77;;
35558;SDS011;21661;50.794;-1.066;2023-05-09T07:22:07;18.80;;;9.85;;
35558;SDS011;21661;50.794;-1.066;2023-05-09T07:24:33;17.50;;;9.90;;
35558;SDS011;21661;50.794;-1.066;2023-05-09T07:27:00;16.15;;;8.75;;
35558;SDS011;21661;50.794;-1.066;2023-05-09T07:29:27;18.85;;;9.68;;
35558;SDS011;21661;50.794;-1.066;2023-05-09T07:31:53;18.70;;;9.55;;
35558;SDS011;21661;50.794;-1.066;2023-05-09T07:34:18;17.30;;;9.55;;
35558;SDS011;21661;50.794;-1.066;2023-05-09T07:36:44;17.02;;;9.40;;
35558;SDS011;21661;50.794;-1.066;2023-05-09T07:39:10;15.77;;;9.55;;
35558;SDS011;21661;50.794;-1.066;2023-05-09T07:41:35;14.13;;;8.52;;
35558;SDS011;21661;50.794;-1.066;2023-05-09T07:44:01;14.85;;;8.68;;
35558;SDS011;21661;50.794;-1.066;2023-05-09T07:46:27;16.42;;;8.82;;
35558;SDS011;21661;50.794;-1.066;2023-05-09T07:48:52;15.05;;;8.75;;
35558;SDS011;21661;50.794;-1.066;2023-05-09T07:51:18;16.80;;;8.88;;
35558;SDS011;21661;50.794;-1.066;2023-05-09T07:53:43;13.75;;;9.07;;
35558;SDS011;21661;50.794;-1.066;2023-05-09T07:56:09;14.95;;;8.75;;
35558;SDS011;21661;50.794;-1.066;2023-05-09T07:58:35;15.23;;;8.88;;
35558;SDS011;21661;50.794;-1.066;2023-05-09T08:01:00;11.93;;;6.95;;
35558;SDS011;21661;50.794;-1.066;2023-05-09T08:03:26;13.15;;;8.32;;
35558;SDS011;21661;50.794;-1.066;2023-05-09T08:05:52;11.20;;;7.28;;
35558;SDS011;21661;50.794;-1.066;2023-05-09T08:08:19;10.80;;;6.13;;
35558;SDS011;21661;50.794;-1.066;2023-05-09T08:10:45;10.75;;;6.93;;
35558;SDS011;21661;50.794;-1.066;2023-05-09T08:13:11;10.15;;;6.40;;
35558;SDS011;21661;50.794;-1.066;2023-05-09T08:15:36;9.85;;;6.22;;
35558;SDS011;21661;50.794;-1.066;2023-05-09T08:18:02;9.68;;;6.80;;
35558;SDS011;21661;50.794;-1.066;2023-05-09T08:20:28;9.55;;;6.53;;
35558;SDS011;21661;50.794;-1.066;2023-05-09T08:22:55;10.57;;;7.43;;
35558;SDS011;21661;50.794;-1.066;2023-05-09T08:25:21;12.30;;;7.13;;
35558;SDS011;21661;50.794;-1.066;2023-05-09T08:27:47;9.13;;;6.45;;
35558;SDS011;21661;50.794;-1.066;2023-05-09T08:30:12;9.15;;;6.00;;
35558;SDS011;21661;50.794;-1.066;2023-05-09T08:32:38;8.68;;;5.93;;
35558;SDS011;21661;50.794;-1.066;2023-05-09T08:35:04;8.70;;;5.80;;
35558;SDS011;21661;50.794;-1.066;2023-05-09T08:37:32;8.55;;;6.10;;
35558;SDS011;21661;50.794;-1.066;2023-05-09T08:39:59;9.18;;;5.63;;
35558;SDS011;21661;50.794;-1.066;2023-05-09T08:42:25;8.32;;;5.70;;
35558;SDS011;21661;50.794;-1.066;2023-05-09T08:44:52;8.13;;;5.72;;
35558;SDS011;21661;50.794;-1.066;2023-05-09T08:47:17;16.58;;;7.00;;
35558;SDS011;21661;50.794;-1.066;2023-05-09T08:49:45;8.77;;;5.47;;
35558;SDS011;21661;50.794;-1.066;2023-05-09T08:52:11;9.35;;;5.25;;
35558;SDS011;21661;50.794;-1.066;2023-05-09T08:54:37;7.20;;;4.90;;
35558;SDS011;21661;50.794;-1.066;2023-05-09T08:57:03;11.90;;;5.00;;
35558;SDS011;21661;50.794;-1.066;2023-05-09T08:59:29;10.45;;;5.75;;
35558;SDS011;21661;50.794;-1.066;2023-05-09T09:01:59;11.40;;;6.22;;
35558;SDS011;21661;50.794;-1.066;2023-05-09T09:04:24;7.60;;;5.20;;
35558;SDS011;21661;50.794;-1.066;2023-05-09T09:06:50;6.82;;;5.03;;
35558;SDS011;21661;50.794;-1.066;2023-05-09T09:09:17;9.73;;;4.85;;
35558;SDS011;21661;50.794;-1.066;2023-05-09T09:11:44;8.88;;;5.03;;
35558;SDS011;21661;50.794;-1.066;2023-05-09T09:14:12;9.23;;;5.90;;
35558;SDS011;21661;50.794;-1.066;2023-05-09T09:16:44;8.25;;;5.18;;
35558;SDS011;21661;50.794;-1.066;2023-05-09T09:19:13;9.02;;;5.53;;
35558;SDS011;21661;50.794;-1.066;2023-05-09T09:21:41;10.07;;;6.28;;
35558;SDS011;21661;50.794;-1.066;2023-05-09T09:24:13;8.63;;;6.05;;
35558;SDS011;21661;50.794;-1.066;2023-05-09T09:26:46;9.82;;;5.65;;
35558;SDS011;21661;50.794;-1.066;2023-05-09T09:29:12;9.32;;;5.68;;
35558;SDS011;21661;50.794;-1.066;2023-05-09T09:31:38;9.77;;;5.70;;
35558;SDS011;21661;50.794;-1.066;2023-05-09T09:34:11;10.18;;;6.20;;
35558;SDS011;21661;50.794;-1.066;2023-05-09T09:36:43;11.90;;;6.15;;
35558;SDS011;21661;50.794;-1.066;2023-05-09T09:39:10;9.32;;;5.40;;
35558;SDS011;21661;50.794;-1.066;2023-05-09T09:41:37;10.65;;;5.85;;
35558;SDS011;21661;50.794;-1.066;2023-05-09T09:44:11;8.20;;;5.45;;
35558;SDS011;21661;50.794;-1.066;2023-05-09T09:49:08;10.50;;;5.40;;
35558;SDS011;21661;50.794;-1.066;2023-05-09T09:51:34;10.57;;;6.30;;
35558;SDS011;21661;50.794;-1.066;2023-05-09T09:54:05;8.68;;;5.40;;
35558;SDS011;21661;50.794;-1.066;2023-05-09T09:59:10;9.85;;;4.90;;
35558;SDS011;21661;50.794;-1.066;2023-05-09T10:04:32;10.68;;;5.72;;
35558;SDS011;21661;50.794;-1.066;2023-05-09T10:07:00;7.88;;;5.35;;
35558;SDS011;21661;50.794;-1.066;2023-05-09T10:09:30;8.88;;;5.53;;
35558;SDS011;21661;50.794;-1.066;2023-05-09T10:12:01;12.73;;;5.90;;
35558;SDS011;21661;50.794;-1.066;2023-05-09T10:14:29;10.57;;;5.45;;
35558;SDS011;21661;50.794;-1.066;2023-05-09T10:16:56;12.02;;;5.22;;
35558;SDS011;21661;50.794;-1.066;2023-05-09T10:19:22;11.10;;;4.78;;
35558;SDS011;21661;50.794;-1.066;2023-05-09T10:21:57;6.43;;;4.22;;
35558;SDS011;21661;50.794;-1.066;2023-05-09T10:24:47;7.72;;;3.95;;
35558;SDS011;21661;50.794;-1.066;2023-05-09T10:27:20;9.80;;;4.40;;
35558;SDS011;21661;50.794;-1.066;2023-05-09T10:29:57;6.22;;;4.07;;
35558;SDS011;21661;50.794;-1.066;2023-05-09T10:32:28;7.63;;;4.30;;
35558;SDS011;21661;50.794;-1.066;2023-05-09T10:35:01;8.45;;;4.57;;
35558;SDS011;21661;50.794;-1.066;2023-05-09T10:37:30;5.53;;;3.80;;
35558;SDS011;21661;50.794;-1.066;2023-05-09T10:39:57;14.45;;;4.65;;
35558;SDS011;21661;50.794;-1.066;2023-05-09T10:42:25;8.60;;;3.55;;
35558;SDS011;21661;50.794;-1.066;2023-05-09T10:44:52;7.82;;;3.78;;
35558;SDS011;21661;50.794;-1.066;2023-05-09T10:47:18;7.97;;;3.35;;
35558;SDS011;21661;50.794;-1.066;2023-05-09T10:49:45;7.85;;;3.70;;
35558;SDS011;21661;50.794;-1.066;2023-05-09T10:52:11;8.07;;;3.45;;
35558;SDS011;21661;50.794;-1.066;2023-05-09T10:54:38;8.60;;;3.20;;
35558;SDS011;21661;50.794;-1.066;2023-05-09T10:57:04;7.93;;;3.00;;
35558;SDS011;21661;50.794;-1.066;2023-05-09T10:59:34;7.28;;;3.15;;
35558;SDS011;21661;50.794;-1.066;2023-05-09T11:02:00;7.63;;;2.25;;
35558;SDS011;21661;50.794;-1.066;2023-05-09T11:04:29;7.28;;;2.70;;
35558;SDS011;21661;50.794;-1.066;2023-05-09T11:06:56;5.68;;;2.30;;
35558;SDS011;21661;50.794;-1.066;2023-05-09T11:12:18;5.68;;;2.40;;
35558;SDS011;21661;50.794;-1.066;2023-05-09T11:14:48;6.05;;;3.08;;
35558;SDS011;21661;50.794;-1.066;2023-05-09T11:22:20;12.02;;;3.22;;
35558;SDS011;21661;50.794;-1.066;2023-05-09T11:24:58;9.25;;;3.30;;
35558;SDS011;21661;50.794;-1.066;2023-05-09T11:27:25;8.25;;;3.40;;
35558;SDS011;21661;50.794;-1.066;2023-05-09T11:29:56;7.32;;;3.10;;
35558;SDS011;21661;50.794;-1.066;2023-05-09T11:32:32;8.93;;;3.72;;
35558;SDS011;21661;50.794;-1.066;2023-05-09T11:37:52;7.25;;;3.35;;
35558;SDS011;21661;50.794;-1.066;2023-05-09T11:40:28;10.55;;;3.80;;
35558;SDS011;21661;50.794;-1.066;2023-05-09T11:42:55;10.13;;;3.70;;
35558;SDS011;21661;50.794;-1.066;2023-05-09T11:45:22;8.48;;;4.07;;
35558;SDS011;21661;50.794;-1.066;2023-05-09T11:47:51;9.13;;;4.15;;
35558;SDS011;21661;50.794;-1.066;2023-05-09T11:50:17;13.52;;;3.92;;
35558;SDS011;21661;50.794;-1.066;2023-05-09T11:52:44;7.38;;;3.65;;
35558;SDS011;21661;50.794;-1.066;2023-05-09T11:55:15;12.07;;;3.45;;
35558;SDS011;21661;50.794;-1.066;2023-05-09T11:57:46;9.15;;;3.78;;
35558;SDS011;21661;50.794;-1.066;2023-05-09T12:00:16;10.15;;;3.70;;
35558;SDS011;21661;50.794;-1.066;2023-05-09T12:02:51;9.05;;;3.42;;
35558;SDS011;21661;50.794;-1.066;2023-05-09T12:05:18;11.55;;;3.90;;
35558;SDS011;21661;50.794;-1.066;2023-05-09T12:07:45;13.07;;;3.72;;
35558;SDS011;21661;50.794;-1.066;2023-05-09T12:10:12;11.00;;;3.33;;
35558;SDS011;21661;50.794;-1.066;2023-05-09T12:12:47;11.07;;;3.03;;
35558;SDS011;21661;50.794;-1.066;2023-05-09T12:15:14;9.85;;;3.85;;
35558;SDS011;21661;50.794;-1.066;2023-05-09T12:17:44;10.57;;;4.10;;
35558;SDS011;21661;50.794;-1.066;2023-05-09T12:20:10;15.23;;;4.70;;
35558;SDS011;21661;50.794;-1.066;2023-05-09T12:22:36;12.57;;;4.00;;
35558;SDS011;21661;50.794;-1.066;2023-05-09T12:25:06;11.70;;;3.97;;
35558;SDS011;21661;50.794;-1.066;2023-05-09T12:27:34;13.68;;;4.43;;
35558;SDS011;21661;50.794;-1.066;2023-05-09T12:30:01;15.05;;;4.93;;
35558;SDS011;21661;50.794;-1.066;2023-05-09T12:32:34;10.30;;;3.40;;
35558;SDS011;21661;50.794;-1.066;2023-05-09T12:35:03;13.73;;;3.22;;
35558;SDS011;21661;50.794;-1.066;2023-05-09T12:37:29;13.48;;;3.30;;
35558;SDS011;21661;50.794;-1.066;2023-05-09T12:40:08;11.07;;;3.30;;
35558;SDS011;21661;50.794;-1.066;2023-05-09T12:42:41;11.07;;;3.95;;
35558;SDS011;21661;50.794;-1.066;2023-05-09T12:45:08;9.27;;;3.47;;
35558;SDS011;21661;50.794;-1.066;2023-05-09T12:47:35;12.43;;;3.65;;
35558;SDS011;21661;50.794;-1.066;2023-05-09T12:50:03;10.23;;;3.88;;
35558;SDS011;21661;50.794;-1.066;2023-05-09T12:52:40;13.82;;;3.92;;
35558;SDS011;21661;50.794;-1.066;2023-05-09T12:55:07;11.55;;;3.80;;
35558;SDS011;21661;50.794;-1.066;2023-05-09T12:57:35;15.65;;;3.97;;
35558;SDS011;21661;50.794;-1.066;2023-05-09T13:00:02;8.75;;;3.58;;
35558;SDS011;21661;50.794;-1.066;2023-05-09T13:02:40;10.20;;;3.47;;
35558;SDS011;21661;50.794;-1.066;2023-05-09T13:05:12;6.97;;;3.42;;
35558;SDS011;21661;50.794;-1.066;2023-05-09T13:07:43;9.93;;;3.63;;
35558;SDS011;21661;50.794;-1.066;2023-05-09T13:10:14;8.85;;;3.50;;
35558;SDS011;21661;50.794;-1.066;2023-05-09T13:12:45;9.43;;;3.22;;
35558;SDS011;21661;50.794;-1.066;2023-05-09T13:15:15;12.02;;;3.70;;
35558;SDS011;21661;50.794;-1.066;2023-05-09T13:17:43;11.35;;;3.80;;
35558;SDS011;21661;50.794;-1.066;2023-05-09T13:20:10;9.95;;;4.10;;
35558;SDS011;21661;50.794;-1.066;2023-05-09T13:22:36;7.22;;;3.17;;
35558;SDS011;21661;50.794;-1.066;2023-05-09T13:25:02;8.00;;;3.00;;
35558;SDS011;21661;50.794;-1.066;2023-05-09T13:27:28;9.15;;;2.60;;
35558;SDS011;21661;50.794;-1.066;2023-05-09T13:29:54;7.32;;;2.53;;
35558;SDS011;21661;50.794;-1.066;2023-05-09T13:32:19;9.75;;;2.63;;
35558;SDS011;21661;50.794;-1.066;2023-05-09T13:34:45;8.65;;;2.20;;
35558;SDS011;21661;50.794;-1.066;2023-05-09T13:37:10;7.35;;;2.40;;
35558;SDS011;21661;50.794;-1.066;2023-05-09T13:39:36;10.95;;;3.72;;
35558;SDS011;21661;50.794;-1.066;2023-05-09T13:42:01;8.85;;;2.90;;
35558;SDS011;21661;50.794;-1.066;2023-05-09T13:44:28;8.27;;;2.75;;
35558;SDS011;21661;50.794;-1.066;2023-05-09T13:46:53;7.82;;;3.00;;
35558;SDS011;21661;50.794;-1.066;2023-05-09T13:49:21;8.70;;;3.25;;
35558;SDS011;21661;50.794;-1.066;2023-05-09T13:51:47;6.00;;;2.72;;
35558;SDS011;21661;50.794;-1.066;2023-05-09T13:54:13;6.90;;;3.03;;
35558;SDS011;21661;50.794;-1.066;2023-05-09T13:56:41;8.00;;;2.72;;
35558;SDS011;21661;50.794;-1.066;2023-05-09T13:59:07;7.53;;;2.55;;
35558;SDS011;21661;50.794;-1.066;2023-05-09T14:01:33;6.70;;;2.70;;
35558;SDS011;21661;50.794;-1.066;2023-05-09T14:03:59;5.88;;;2.70;;
35558;SDS011;21661;50.794;-1.066;2023-05-09T14:06:25;6.15;;;2.50;;
35558;SDS011;21661;50.794;-1.066;2023-05-09T14:08:51;6.38;;;2.80;;
35558;SDS011;21661;50.794;-1.066;2023-05-09T14:11:17;6.35;;;2.60;;
35558;SDS011;21661;50.794;-1.066;2023-05-09T14:13:42;5.32;;;1.95;;
35558;SDS011;21661;50.794;-1.066;2023-05-09T14:16:08;9.50;;;2.00;;
35558;SDS011;21661;50.794;-1.066;2023-05-09T14:18:34;10.00;;;2.42;;
35558;SDS011;21661;50.794;-1.066;2023-05-09T14:21:00;7.15;;;1.90;;
35558;SDS011;21661;50.794;-1.066;2023-05-09T14:23:25;8.45;;;2.38;;
35558;SDS011;21661;50.794;-1.066;2023-05-09T14:25:51;8.48;;;2.40;;
35558;SDS011;21661;50.794;-1.066;2023-05-09T14:28:17;12.38;;;3.00;;
35558;SDS011;21661;50.794;-1.066;2023-05-09T14:30:42;8.18;;;2.20;;
35558;SDS011;21661;50.794;-1.066;2023-05-09T14:33:08;11.48;;;2.92;;
35558;SDS011;21661;50.794;-1.066;2023-05-09T14:35:34;8.63;;;2.10;;
35558;SDS011;21661;50.794;-1.066;2023-05-09T14:37:59;8.52;;;2.15;;
35558;SDS011;21661;50.794;-1.066;2023-05-09T14:40:25;6.13;;;1.92;;
35558;SDS011;21661;50.794;-1.066;2023-05-09T14:42:56;10.03;;;2.37;;
35558;SDS011;21661;50.794;-1.066;2023-05-09T14:45:23;6.97;;;1.60;;
35558;SDS011;21661;50.794;-1.066;2023-05-09T14:47:49;7.05;;;2.20;;
35558;SDS011;21661;50.794;-1.066;2023-05-09T14:50:15;8.07;;;2.00;;
35558;SDS011;21661;50.794;-1.066;2023-05-09T14:52:42;8.82;;;2.00;;